createdAt,value
2019-03-25T00:01:56.255Z,28.95
2019-03-25T00:04:25.117Z,71.05
2019-03-25T00:06:53.957Z,165.97
2019-03-25T00:09:22.857Z,52.25
2019-03-25T00:11:51.756Z,67.53
2019-03-25T00:14:20.714Z,61.75
2019-03-25T00:16:49.637Z,124.67
2019-03-25T00:19:18.498Z,47.78
2019-03-25T00:21:47.340Z,37.78
2019-03-25T00:24:16.281Z,56.58
2019-03-25T00:26:45.216Z,28.30
2019-03-25T00:29:14.059Z,29.20
2019-03-25T00:31:42.975Z,27.05
2019-03-25T00:34:11.835Z,33.42
2019-03-25T00:36:40.695Z,27.20
2019-03-25T00:39:09.597Z,27.60
2019-03-25T00:41:38.443Z,29.07
2019-03-25T00:44:08.303Z,28.77
2019-03-25T00:46:37.298Z,26.77
2019-03-25T00:49:06.336Z,27.25
2019-03-25T00:51:35.185Z,26.68
2019-03-25T00:54:04.296Z,26.35
2019-03-25T00:56:33.146Z,25.68
2019-03-25T00:59:02.084Z,27.25
2019-03-25T01:01:31.076Z,26.00
2019-03-25T01:03:59.955Z,26.45
2019-03-25T01:06:28.804Z,25.17
2019-03-25T01:08:57.783Z,25.90
2019-03-25T01:11:26.616Z,24.45
2019-03-25T01:13:55.477Z,26.15
2019-03-25T01:16:24.376Z,25.08
2019-03-25T01:18:53.235Z,25.72
2019-03-25T01:21:22.105Z,25.00
2019-03-25T01:23:51.107Z,24.90
2019-03-25T01:26:20.036Z,24.10
2019-03-25T01:28:48.895Z,23.57
2019-03-25T01:31:17.796Z,23.57
2019-03-25T01:33:46.663Z,22.75
2019-03-25T01:36:15.542Z,22.60
2019-03-25T01:38:44.537Z,21.82
2019-03-25T01:41:13.386Z,21.82
2019-03-25T01:43:42.321Z,21.50
2019-03-25T01:46:11.296Z,20.85
2019-03-25T01:48:40.136Z,21.68
2019-03-25T01:51:08.977Z,20.05
2019-03-25T01:53:37.996Z,19.45
2019-03-25T01:56:06.855Z,21.55
2019-03-25T01:58:35.695Z,20.48
2019-03-25T02:01:04.706Z,20.45
2019-03-25T02:03:33.577Z,20.35
2019-03-25T02:06:02.437Z,19.60
2019-03-25T02:08:31.356Z,19.30
2019-03-25T02:11:00.235Z,20.12
2019-03-25T02:13:29.074Z,19.70
2019-03-25T02:15:57.996Z,19.55
2019-03-25T02:18:26.855Z,18.65
2019-03-25T02:20:55.924Z,19.32
2019-03-25T02:23:24.999Z,18.48
2019-03-25T02:25:54.095Z,19.12
2019-03-25T02:28:23.035Z,18.90
2019-03-25T02:30:52.016Z,18.52
2019-03-25T02:33:20.857Z,18.92
2019-03-25T02:35:49.727Z,18.75
2019-03-25T02:38:18.731Z,18.67
2019-03-25T02:40:47.658Z,19.73
2019-03-25T02:43:16.521Z,20.00
2019-03-25T02:45:45.525Z,19.50
2019-03-25T02:48:14.459Z,20.88
2019-03-25T02:50:43.315Z,19.87
2019-03-25T02:53:12.243Z,19.60
2019-03-25T02:55:42.396Z,20.50
2019-03-25T02:58:24.996Z,19.57
2019-03-25T03:00:53.772Z,18.17
2019-03-25T03:03:22.532Z,18.30
2019-03-25T03:05:51.315Z,19.73
2019-03-25T03:08:21.372Z,25.97
2019-03-25T03:10:50.131Z,23.90
2019-03-25T03:13:18.914Z,34.43
2019-03-25T03:15:47.693Z,81.35
2019-03-25T03:18:16.453Z,112.47
2019-03-25T03:20:45.254Z,44.58
2019-03-25T03:23:13.972Z,41.23
2019-03-25T03:25:56.366Z,42.20
2019-03-25T03:28:13.229Z,42.65
2019-03-25T03:30:42.030Z,33.08
2019-03-25T03:33:13.981Z,40.35
2019-03-25T03:35:46.240Z,27.90
2019-03-25T03:38:13.291Z,26.12
2019-03-25T03:40:42.051Z,36.80
2019-03-25T03:43:10.831Z,35.55
2019-03-25T03:45:39.611Z,34.25
2019-03-25T03:48:08.392Z,21.60
2019-03-25T03:50:37.260Z,22.98
2019-03-25T03:53:06.212Z,22.20
2019-03-25T03:55:36.943Z,22.40
2019-03-25T03:58:05.806Z,22.73
2019-03-25T04:00:35.578Z,21.80
2019-03-25T04:03:04.547Z,23.18
2019-03-25T04:05:33.331Z,23.85
2019-03-25T04:08:02.091Z,23.15
2019-03-25T04:10:30.901Z,23.05
2019-03-25T04:12:59.780Z,22.77
2019-03-25T04:15:30.510Z,23.47
2019-03-25T04:17:59.830Z,23.18
2019-03-25T04:20:28.594Z,24.30
2019-03-25T04:22:57.381Z,22.02
2019-03-25T04:25:26.156Z,22.22
2019-03-25T04:27:55.156Z,21.60
2019-03-25T04:30:23.900Z,21.45
2019-03-25T04:32:52.730Z,22.07
2019-03-25T04:35:21.562Z,20.65
2019-03-25T04:37:51.352Z,21.50
2019-03-25T04:40:20.114Z,21.12
2019-03-25T04:42:48.880Z,23.00
2019-03-25T04:45:17.696Z,22.67
2019-03-25T04:47:46.440Z,21.12
2019-03-25T04:50:15.340Z,23.35
2019-03-25T04:52:44.140Z,22.25
2019-03-25T04:55:13.020Z,22.42
2019-03-25T04:57:41.740Z,22.70
2019-03-25T05:00:10.792Z,23.02
2019-03-25T05:02:39.541Z,22.67
2019-03-25T05:05:09.592Z,21.33
2019-03-25T05:07:38.403Z,21.93
2019-03-25T05:10:08.096Z,24.15
2019-03-25T05:12:36.860Z,25.52
2019-03-25T05:15:07.112Z,27.58
2019-03-25T05:17:35.919Z,25.75
2019-03-25T05:20:05.372Z,24.32
2019-03-25T05:22:34.152Z,21.48
2019-03-25T05:25:03.020Z,23.20
2019-03-25T05:27:31.819Z,21.02
2019-03-25T05:30:00.614Z,21.80
2019-03-25T05:32:29.360Z,21.17
2019-03-25T05:34:58.179Z,21.93
2019-03-25T05:37:26.931Z,21.70
2019-03-25T05:39:55.753Z,21.73
2019-03-25T05:42:24.511Z,21.42
2019-03-25T05:44:53.272Z,21.25
2019-03-25T05:47:22.012Z,22.13
2019-03-25T05:49:50.832Z,21.68
2019-03-25T05:52:19.590Z,22.40
2019-03-25T05:54:48.334Z,22.20
2019-03-25T05:57:17.111Z,21.42
2019-03-25T05:59:45.890Z,21.85
2019-03-25T06:02:14.672Z,20.55
2019-03-25T06:04:43.434Z,21.70
2019-03-25T06:07:12.210Z,20.17
2019-03-25T06:09:40.970Z,18.62
2019-03-25T06:12:09.931Z,18.85
2019-03-25T06:14:38.695Z,17.98
2019-03-25T06:17:07.472Z,20.68
2019-03-25T06:19:36.290Z,17.32
2019-03-25T06:22:05.050Z,17.20
2019-03-25T06:24:33.850Z,17.62
2019-03-25T06:27:13.398Z,17.67
2019-03-25T06:29:33.152Z,17.15
2019-03-25T06:32:01.923Z,16.10
2019-03-25T06:34:30.691Z,16.62
2019-03-25T06:36:59.471Z,16.37
2019-03-25T06:39:28.254Z,15.68
2019-03-25T06:41:58.712Z,14.98
2019-03-25T06:44:27.492Z,14.63
2019-03-25T06:46:56.290Z,16.02
2019-03-25T06:49:25.060Z,14.47
2019-03-25T06:51:53.859Z,14.20
2019-03-25T06:54:22.640Z,14.80
2019-03-25T06:56:51.410Z,13.85
2019-03-25T06:59:20.170Z,12.85
2019-03-25T07:01:48.951Z,12.15
2019-03-25T07:04:17.730Z,23.73
2019-03-25T07:06:46.530Z,27.58
2019-03-25T07:09:15.340Z,14.45
2019-03-25T07:11:44.890Z,11.97
2019-03-25T07:14:13.770Z,13.00
2019-03-25T07:16:42.533Z,13.35
2019-03-25T07:19:11.340Z,13.10
2019-03-25T07:21:40.121Z,12.00
2019-03-25T07:24:08.940Z,11.78
2019-03-25T07:26:37.690Z,13.32
2019-03-25T07:29:06.451Z,10.75
2019-03-25T07:31:35.270Z,9.68
2019-03-25T07:34:04.015Z,11.12
2019-03-25T07:36:32.833Z,14.55
2019-03-25T07:39:01.571Z,9.50
2019-03-25T07:41:30.387Z,8.85
2019-03-25T07:43:59.151Z,8.18
2019-03-25T07:46:27.991Z,8.35
2019-03-25T07:48:58.251Z,11.73
2019-03-25T07:51:27.010Z,10.28
2019-03-25T07:53:55.802Z,8.58
2019-03-25T07:56:24.570Z,6.83
2019-03-25T07:58:53.361Z,8.03
2019-03-25T08:01:22.114Z,10.25
2019-03-25T08:03:50.902Z,11.18
2019-03-25T08:06:21.930Z,8.50
2019-03-25T08:08:50.769Z,9.05
2019-03-25T08:11:19.537Z,8.15
2019-03-25T08:13:48.381Z,8.13
2019-03-25T08:16:17.146Z,9.50
2019-03-25T08:18:45.970Z,9.35
2019-03-25T08:21:15.050Z,7.85
2019-03-25T08:23:46.073Z,8.58
2019-03-25T08:26:16.471Z,8.90
2019-03-25T08:28:45.397Z,9.00
2019-03-25T08:31:14.219Z,8.50
2019-03-25T08:33:42.951Z,8.35
2019-03-25T08:36:11.711Z,8.85
2019-03-25T08:38:40.590Z,7.42
2019-03-25T08:41:09.350Z,9.68
2019-03-25T08:43:38.132Z,9.15
2019-03-25T08:46:06.991Z,13.08
2019-03-25T08:48:35.784Z,9.53
2019-03-25T08:51:04.636Z,8.30
2019-03-25T08:53:33.450Z,11.63
2019-03-25T08:56:02.211Z,8.25
2019-03-25T08:58:31.000Z,13.05
2019-03-25T09:00:59.770Z,8.63
2019-03-25T09:03:28.530Z,8.45
2019-03-25T09:05:59.406Z,8.98
2019-03-25T09:08:27.791Z,9.10
2019-03-25T09:10:56.570Z,14.85
2019-03-25T09:13:25.331Z,8.13
2019-03-25T09:15:54.151Z,9.83
2019-03-25T09:18:22.890Z,13.25
2019-03-25T09:20:51.652Z,10.55
2019-03-25T09:23:20.431Z,7.85
2019-03-25T09:25:49.173Z,9.30
2019-03-25T09:28:24.148Z,9.33
2019-03-25T09:30:54.181Z,10.70
2019-03-25T09:33:23.252Z,9.65
2019-03-25T09:35:52.099Z,8.60
2019-03-25T09:38:21.200Z,9.85
2019-03-25T09:40:50.020Z,9.13
2019-03-25T09:43:18.889Z,10.08
2019-03-25T09:45:47.612Z,9.83
2019-03-25T09:48:16.371Z,9.03
2019-03-25T09:50:45.190Z,169.30
2019-03-25T09:53:13.972Z,64.62
2019-03-25T09:55:42.772Z,21.65
2019-03-25T09:58:11.534Z,10.53
2019-03-25T10:00:40.313Z,18.27
2019-03-25T10:03:09.451Z,9.13
2019-03-25T10:05:38.251Z,10.20
2019-03-25T10:08:07.053Z,10.72
2019-03-25T10:10:35.821Z,13.13
2019-03-25T10:13:04.590Z,11.22
2019-03-25T10:15:33.411Z,13.25
2019-03-25T10:18:02.219Z,20.15
2019-03-25T10:20:30.984Z,8.45
2019-03-25T10:22:59.732Z,14.75
2019-03-25T10:25:28.511Z,11.38
2019-03-25T10:27:57.310Z,8.25
2019-03-25T10:30:26.491Z,8.00
2019-03-25T10:32:55.252Z,9.98
2019-03-25T10:35:24.032Z,8.83
2019-03-25T10:37:52.790Z,7.47
2019-03-25T10:40:21.551Z,7.90
2019-03-25T10:42:50.318Z,8.75
2019-03-25T10:45:19.099Z,8.05
2019-03-25T10:47:47.852Z,6.83
2019-03-25T10:50:16.739Z,7.40
2019-03-25T10:52:45.471Z,7.30
2019-03-25T10:55:14.390Z,7.62
2019-03-25T10:57:43.243Z,7.53
2019-03-25T11:00:13.211Z,7.42
2019-03-25T11:02:41.992Z,6.60
2019-03-25T11:05:11.270Z,7.37
2019-03-25T11:07:40.224Z,7.25
2019-03-25T11:10:09.847Z,7.92
2019-03-25T11:12:38.654Z,7.30
2019-03-25T11:15:08.797Z,7.08
2019-03-25T11:17:37.650Z,7.40
2019-03-25T11:20:08.612Z,6.53
2019-03-25T11:22:37.430Z,6.95
2019-03-25T11:25:07.336Z,7.95
2019-03-25T11:27:36.091Z,8.33
2019-03-25T11:30:07.159Z,7.15
2019-03-25T11:32:35.911Z,9.45
2019-03-25T11:35:09.040Z,8.30
2019-03-25T11:37:37.810Z,8.13
2019-03-25T11:40:09.439Z,8.83
2019-03-25T11:42:38.195Z,8.40
2019-03-25T11:45:09.250Z,8.68
2019-03-25T11:47:38.015Z,8.80
2019-03-25T11:50:07.858Z,8.70
2019-03-25T11:52:36.631Z,9.33
2019-03-25T11:55:07.203Z,9.55
2019-03-25T11:57:36.050Z,10.95
2019-03-25T12:00:07.950Z,15.95
2019-03-25T12:02:36.833Z,9.05
2019-03-25T12:05:07.371Z,14.38
2019-03-25T12:07:36.194Z,8.73
2019-03-25T12:10:06.752Z,14.25
2019-03-25T12:12:35.523Z,12.35
2019-03-25T12:15:08.910Z,9.08
2019-03-25T12:17:37.890Z,12.35
2019-03-25T12:20:07.290Z,9.18
2019-03-25T12:22:36.032Z,9.75
2019-03-25T12:25:06.811Z,7.95
2019-03-25T12:27:35.571Z,9.18
2019-03-25T12:30:06.390Z,9.78
2019-03-25T12:32:35.950Z,9.05
2019-03-25T12:35:07.850Z,8.75
2019-03-25T12:37:36.609Z,8.83
2019-03-25T12:40:07.829Z,8.90
2019-03-25T12:42:36.892Z,7.80
2019-03-25T12:45:07.733Z,8.85
2019-03-25T12:47:36.530Z,6.55
2019-03-25T12:50:07.890Z,9.50
2019-03-25T12:52:36.678Z,7.42
2019-03-25T12:55:06.250Z,7.40
2019-03-25T12:57:35.031Z,8.03
2019-03-25T13:00:05.417Z,8.68
2019-03-25T13:02:34.179Z,20.50
2019-03-25T13:05:02.933Z,9.00
2019-03-25T13:07:31.690Z,8.85
2019-03-25T13:10:00.473Z,9.48
2019-03-25T13:12:29.232Z,9.48
2019-03-25T13:14:58.030Z,9.55
2019-03-25T13:17:26.770Z,10.18
2019-03-25T13:19:55.569Z,7.78
2019-03-25T13:22:24.410Z,8.93
2019-03-25T13:24:53.210Z,10.05
2019-03-25T13:27:21.950Z,34.80
2019-03-25T13:29:52.892Z,11.35
2019-03-25T13:32:21.335Z,7.33
2019-03-25T13:34:50.076Z,6.83
2019-03-25T13:37:18.859Z,7.08
2019-03-25T13:39:47.632Z,8.75
2019-03-25T13:42:16.391Z,9.65
2019-03-25T13:44:45.150Z,10.20
2019-03-25T13:47:13.952Z,26.17
2019-03-25T13:49:42.711Z,10.03
2019-03-25T13:52:11.533Z,10.23
2019-03-25T13:54:41.712Z,14.03
2019-03-25T13:57:10.490Z,16.15
2019-03-25T13:59:39.274Z,13.22
2019-03-25T14:02:08.030Z,11.22
2019-03-25T14:04:36.810Z,11.03
2019-03-25T14:07:05.679Z,10.10
2019-03-25T14:09:34.430Z,9.03
2019-03-25T14:12:03.192Z,11.48
2019-03-25T14:14:31.970Z,9.25
2019-03-25T14:17:02.191Z,8.25
2019-03-25T14:19:31.011Z,8.70
2019-03-25T14:21:59.891Z,15.03
2019-03-25T14:24:29.030Z,9.20
2019-03-25T14:26:57.832Z,8.65
2019-03-25T14:29:26.590Z,8.85
2019-03-25T14:31:56.170Z,8.30
2019-03-25T14:34:24.931Z,9.50
2019-03-25T14:36:53.730Z,9.40
2019-03-25T14:39:22.591Z,9.00
2019-03-25T14:41:51.513Z,10.20
2019-03-25T14:44:20.290Z,10.23
2019-03-25T14:46:49.053Z,9.13
2019-03-25T14:49:17.850Z,13.58
2019-03-25T14:51:47.671Z,18.95
2019-03-25T14:54:16.428Z,10.38
2019-03-25T14:56:45.212Z,8.58
2019-03-25T14:59:16.333Z,7.00
2019-03-25T15:01:45.673Z,8.28
2019-03-25T15:04:14.595Z,7.22
2019-03-25T15:06:43.346Z,13.53
2019-03-25T15:09:12.132Z,8.40
2019-03-25T15:11:40.962Z,5.15
2019-03-25T15:14:10.571Z,5.72
2019-03-25T15:16:41.810Z,3.27
2019-03-25T15:19:11.591Z,3.12
2019-03-25T15:21:40.450Z,3.50
2019-03-25T15:24:09.197Z,3.80
2019-03-25T15:26:37.992Z,4.05
2019-03-25T15:29:07.911Z,3.37
2019-03-25T15:31:36.670Z,4.42
2019-03-25T15:34:05.531Z,3.95
2019-03-25T15:36:34.353Z,4.20
2019-03-25T15:39:03.236Z,5.67
2019-03-25T15:41:31.959Z,5.45
2019-03-25T15:44:00.712Z,5.55
2019-03-25T15:46:29.452Z,6.97
2019-03-25T15:48:58.250Z,7.05
2019-03-25T15:51:27.078Z,5.58
2019-03-25T15:53:55.831Z,8.58
2019-03-25T15:56:24.631Z,8.10
2019-03-25T15:58:53.392Z,6.60
2019-03-25T16:01:22.312Z,8.03
2019-03-25T16:03:51.031Z,8.23
2019-03-25T16:06:22.244Z,13.45
2019-03-25T16:08:52.032Z,6.53
2019-03-25T16:11:20.930Z,10.30
2019-03-25T16:13:50.752Z,8.90
2019-03-25T16:16:19.510Z,9.55
2019-03-25T16:18:48.412Z,10.03
2019-03-25T16:21:17.174Z,10.95
2019-03-25T16:23:46.170Z,11.85
2019-03-25T16:26:14.932Z,13.45
2019-03-25T16:28:43.731Z,13.40
2019-03-25T16:31:14.292Z,10.80
2019-03-25T16:33:43.153Z,15.50
2019-03-25T16:36:11.952Z,10.23
2019-03-25T16:38:41.192Z,12.58
2019-03-25T16:41:11.691Z,12.25
2019-03-25T16:43:40.459Z,11.80
2019-03-25T16:46:09.252Z,13.95
2019-03-25T16:48:39.592Z,11.85
2019-03-25T16:51:08.530Z,11.95
2019-03-25T16:53:37.410Z,12.47
2019-03-25T16:56:06.251Z,12.05
2019-03-25T16:58:35.030Z,14.45
2019-03-25T17:01:09.862Z,23.00
2019-03-25T17:03:34.835Z,12.23
2019-03-25T17:06:03.601Z,14.45
2019-03-25T17:08:32.370Z,17.32
2019-03-25T17:11:02.778Z,13.50
2019-03-25T17:13:32.450Z,14.40
2019-03-25T17:16:01.551Z,40.60
2019-03-25T17:18:30.333Z,26.95
2019-03-25T17:21:00.610Z,14.98
2019-03-25T17:23:29.351Z,14.70
2019-03-25T17:25:58.153Z,12.90
2019-03-25T17:28:26.894Z,12.00
2019-03-25T17:30:55.791Z,12.58
2019-03-25T17:33:24.550Z,13.48
2019-03-25T17:35:54.250Z,15.98
2019-03-25T17:38:23.051Z,19.73
2019-03-25T17:40:51.812Z,13.20
2019-03-25T17:43:22.172Z,15.15
2019-03-25T17:45:50.951Z,12.55
2019-03-25T17:48:19.870Z,14.70
2019-03-25T17:50:48.687Z,12.55
2019-03-25T17:53:17.572Z,12.23
2019-03-25T17:55:46.351Z,11.55
2019-03-25T17:58:15.100Z,12.60
2019-03-25T18:00:46.774Z,11.05
2019-03-25T18:03:15.531Z,11.70
2019-03-25T18:05:44.457Z,11.00
2019-03-25T18:08:13.171Z,13.48
2019-03-25T18:10:42.032Z,11.12
2019-03-25T18:13:21.987Z,12.00
2019-03-25T18:15:42.753Z,17.12
2019-03-25T18:18:11.532Z,26.55
2019-03-25T18:20:40.372Z,27.10
2019-03-25T18:23:09.174Z,22.48
2019-03-25T18:25:38.050Z,28.32
2019-03-25T18:28:06.830Z,23.77
2019-03-25T18:30:35.886Z,19.62
2019-03-25T18:33:04.712Z,22.98
2019-03-25T18:35:33.449Z,21.37
2019-03-25T18:38:02.230Z,30.12
2019-03-25T18:40:31.010Z,26.42
2019-03-25T18:42:59.787Z,20.82
2019-03-25T18:45:30.170Z,18.55
2019-03-25T18:47:59.130Z,16.45
2019-03-25T18:50:28.047Z,13.15
2019-03-25T18:52:57.135Z,13.78
2019-03-25T18:55:25.958Z,13.28
2019-03-25T18:57:54.833Z,13.05
2019-03-25T19:00:36.378Z,13.30
2019-03-25T19:03:05.470Z,15.48
2019-03-25T19:05:34.393Z,33.28
2019-03-25T19:08:06.711Z,34.55
2019-03-25T19:10:35.550Z,13.68
2019-03-25T19:13:04.641Z,17.60
2019-03-25T19:15:33.650Z,14.93
2019-03-25T19:18:02.380Z,18.48
2019-03-25T19:20:31.252Z,17.40
2019-03-25T19:23:00.073Z,20.10
2019-03-25T19:25:30.123Z,21.42
2019-03-25T19:27:58.971Z,15.68
2019-03-25T19:30:27.810Z,17.52
2019-03-25T19:32:56.610Z,13.95
2019-03-25T19:35:25.406Z,16.25
2019-03-25T19:37:54.182Z,12.53
2019-03-25T19:40:23.110Z,14.43
2019-03-25T19:42:53.290Z,27.27
2019-03-25T19:45:22.192Z,13.03
2019-03-25T19:47:50.969Z,10.53
2019-03-25T19:50:20.930Z,8.43
2019-03-25T19:52:49.871Z,6.95
2019-03-25T19:55:18.715Z,7.42
2019-03-25T19:57:47.550Z,6.15
2019-03-25T20:00:18.152Z,6.25
2019-03-25T20:02:46.990Z,5.75
2019-03-25T20:05:15.946Z,5.42
2019-03-25T20:07:44.931Z,5.22
2019-03-25T20:10:34.395Z,5.45
2019-03-25T20:13:03.307Z,5.28
2019-03-25T20:15:44.997Z,5.58
2019-03-25T20:18:03.074Z,4.55
2019-03-25T20:20:31.931Z,5.85
2019-03-25T20:23:00.969Z,4.75
2019-03-25T20:25:29.891Z,5.20
2019-03-25T20:27:58.950Z,5.47
2019-03-25T20:30:27.788Z,5.92
2019-03-25T20:32:56.696Z,5.55
2019-03-25T20:35:25.593Z,5.03
2019-03-25T20:37:54.362Z,6.00
2019-03-25T20:40:23.258Z,5.85
2019-03-25T20:42:52.111Z,5.95
2019-03-25T20:45:20.998Z,6.28
2019-03-25T20:47:50.007Z,6.60
2019-03-25T20:50:19.101Z,6.60
2019-03-25T20:52:49.291Z,6.55
2019-03-25T20:55:18.120Z,7.10
2019-03-25T20:57:46.965Z,6.72
2019-03-25T21:00:16.410Z,6.92
2019-03-25T21:02:45.703Z,6.25
2019-03-25T21:05:14.853Z,7.58
2019-03-25T21:07:45.260Z,10.40
2019-03-25T21:10:14.302Z,7.47
2019-03-25T21:12:43.230Z,6.45
2019-03-25T21:15:12.222Z,8.35
2019-03-25T21:17:41.220Z,7.35
2019-03-25T21:20:10.482Z,7.40
2019-03-25T21:22:40.940Z,7.25
2019-03-25T21:25:09.842Z,8.03
2019-03-25T21:27:39.707Z,9.28
2019-03-25T21:30:10.931Z,9.68
2019-03-25T21:32:39.701Z,10.13
2019-03-25T21:35:08.787Z,10.98
2019-03-25T21:37:37.637Z,12.28
2019-03-25T21:40:07.839Z,10.55
2019-03-25T21:42:36.633Z,9.78
2019-03-25T21:45:08.351Z,10.80
2019-03-25T21:47:37.210Z,10.48
2019-03-25T21:50:06.908Z,8.05
2019-03-25T21:52:35.672Z,9.55
2019-03-25T21:55:05.961Z,9.55
2019-03-25T21:57:34.760Z,9.70
2019-03-25T22:00:09.818Z,9.78
2019-03-25T22:02:38.612Z,11.20
2019-03-25T22:05:09.020Z,9.33
2019-03-25T22:07:38.491Z,9.45
2019-03-25T22:10:07.773Z,10.45
2019-03-25T22:12:36.615Z,10.88
2019-03-25T22:15:09.764Z,9.45
2019-03-25T22:17:40.135Z,10.20
2019-03-25T22:20:11.249Z,10.65
2019-03-25T22:22:40.892Z,9.95
2019-03-25T22:25:09.894Z,9.53
2019-03-25T22:27:40.272Z,10.30
2019-03-25T22:30:09.411Z,11.08
2019-03-25T22:32:39.310Z,10.65
2019-03-25T22:35:09.552Z,11.00
2019-03-25T22:37:38.290Z,10.98
2019-03-25T22:40:10.352Z,12.25
2019-03-25T22:42:39.071Z,12.85
2019-03-25T22:45:08.582Z,13.38
2019-03-25T22:47:37.330Z,13.10
2019-03-25T22:50:08.630Z,12.73
2019-03-25T22:52:37.430Z,14.75
2019-03-25T22:55:08.871Z,16.00
2019-03-25T22:57:38.504Z,14.15
2019-03-25T23:00:08.476Z,14.10
2019-03-25T23:02:37.311Z,14.15
2019-03-25T23:05:06.990Z,15.10
2019-03-25T23:07:35.752Z,15.70
2019-03-25T23:10:05.031Z,16.37
2019-03-25T23:12:33.790Z,14.87
2019-03-25T23:15:02.553Z,16.67
2019-03-25T23:17:31.310Z,17.40
2019-03-25T23:20:00.771Z,18.30
2019-03-25T23:22:29.637Z,18.25
2019-03-25T23:25:00.671Z,18.05
2019-03-25T23:27:30.810Z,62.48
2019-03-25T23:30:01.310Z,18.15
2019-03-25T23:32:30.651Z,20.50
2019-03-25T23:35:00.892Z,20.02
2019-03-25T23:37:30.670Z,19.87
2019-03-25T23:40:00.911Z,19.52
2019-03-25T23:42:29.632Z,19.48
2019-03-25T23:44:58.413Z,20.55
2019-03-25T23:47:27.171Z,21.93
2019-03-25T23:49:55.910Z,19.98
2019-03-25T23:52:24.730Z,21.57
2019-03-25T23:54:53.470Z,24.57
2019-03-25T23:57:22.230Z,22.93
2019-03-25T23:59:51.010Z,20.20
